Main page
METAR-TAF:

METAR-TAF

Airports :

Sydney Airport

Sydney, Australia

latitude: 33-57S, longitude: 151-11E, elevation: 6 m

Current weather observation

The report was made 49 minutes ago, at 02:30 UTC
Wind 15 kt from the Southwest
Temperature 14°C
Humidity 47%
Pressure 1013 hPa
Visibility 10 km or more
no clouds below 1500 m and no cumulonimbus

METAR: YSSY 160230Z 22015KT CAVOK 14/03 Q1013

Time: 13:19 (03:19 UTC)

Forecast

The report was made 45 minutes ago, at 02:34 UTC
Forecast valid from 16 at 03 UTC to 17 at 06 UTC
Wind 16 kt from the Southwest
Visibility 10 km or more
no clouds below 1500 m and no cumulonimbus
From 16 at 1200 UTC
Wind 14 kt from the West
Visibility 10 km or more
Scattered clouds at a height of 4000 ft
From 17 at 0100 UTC
Wind 22 kt from the South/Southwest with gusts up to 32 kt
Visibility 10 km or more
Scattered clouds at a height of 2500 ft

TAF: YSSY 160234Z 1603/1706 22016KT CAVOK FM161200 26014KT 9999 SCT040 FM170100 21022G32KT 9999 SCT025

Weather observations and forecasts of more than 4000 airports (METAR and TAF reports).

The available stations are represented by yellow and red dots on the map.

Hover mouse over dot to see the name of the station.

Then click to see weather observations and forecasts.

To change the map : click on the green buttons with a black cross to zoom in, on the green button with a dash to zoom out, or on the green arrows for adjacent maps.


METAR-TAF: